Time;durP1;ratioP1;P1;durP2;ratioP2;P2;SDS_P1;SDS_P2;PMS_P1;PMS_P2;Temp;Humidity;BMP_temperature;BMP_pressure;BME280_temperature;BME280_humidity;BME280_pressure;Samples;Min_cycle;Max_cycle;Signal;HPM_P1;HPM_P2
2022/01/11 00:01:41;;;;;;;57.90;19.83;;;;;;;;;;4975709;28;20225;-71
2022/01/11 00:04:07;;;;;;;60.07;19.30;;;;;;;;;;4958509;28;20276;-71
2022/01/11 00:06:39;;;;;;;56.87;20.30;;;;;;;;;;4972643;28;20226;-71
2022/01/11 00:09:21;;;;;;;57.00;20.60;;;;;;;;;;4988588;28;20225;-72
2022/01/11 00:11:51;;;;;;;73.07;21.53;;;;;;;;;;4977121;28;20225;-71
2022/01/11 00:14:19;;;;;;;149.20;26.13;;;;;;;;;;4973460;28;20234;-71
2022/01/11 00:16:47;;;;;;;62.73;20.47;;;;;;;;;;4940350;28;20218;-71
2022/01/11 00:19:14;;;;;;;54.80;20.93;;;;;;;;;;4971309;28;20222;-72
2022/01/11 00:21:45;;;;;;;108.63;25.17;;;;;;;;;;4955674;28;20230;-71
2022/01/11 00:24:30;;;;;;;56.33;20.63;;;;;;;;;;4971494;28;20225;-71
2022/01/11 00:27:11;;;;;;;91.93;23.23;;;;;;;;;;4960659;28;20661;-71
2022/01/11 00:29:41;;;;;;;58.67;20.87;;;;;;;;;;4939128;28;20222;-71
2022/01/11 00:32:16;;;;;;;53.60;21.30;;;;;;;;;;4957218;28;20235;-71
2022/01/11 00:34:50;;;;;;;53.50;21.23;;;;;;;;;;4956359;28;20237;-71
2022/01/11 00:37:19;;;;;;;138.13;27.83;;;;;;;;;;4956402;28;20320;-71
2022/01/11 00:39:50;;;;;;;139.53;27.50;;;;;;;;;;4989518;28;20214;-71
2022/01/11 00:42:23;;;;;;;145.23;25.33;;;;;;;;;;4973627;28;20260;-71
2022/01/11 00:44:51;;;;;;;55.70;20.13;;;;;;;;;;4957652;28;20700;-71
2022/01/11 00:47:16;;;;;;;52.17;20.10;;;;;;;;;;4955890;28;20224;-71
2022/01/11 00:49:46;;;;;;;189.93;30.70;;;;;;;;;;4959182;28;20654;-72
2022/01/11 00:52:15;;;;;;;67.20;21.53;;;;;;;;;;4954474;28;20234;-71
2022/01/11 00:54:45;;;;;;;95.77;23.47;;;;;;;;;;4971021;28;20240;-71
2022/01/11 00:57:14;;;;;;;198.53;31.40;;;;;;;;;;4974217;28;20710;-72
2022/01/11 00:59:42;;;;;;;133.83;27.50;;;;;;;;;;4960208;28;20225;-71
2022/01/11 01:02:09;;;;;;;80.10;22.00;;;;;;;;;;4954363;28;20337;-71
2022/01/11 01:04:37;;;;;;;124.87;26.00;;;;;;;;;;4952555;28;20221;-71
2022/01/11 01:07:06;;;;;;;126.87;26.20;;;;;;;;;;4974578;28;20244;-72
2022/01/11 01:09:42;;;;;;;55.00;21.77;;;;;;;;;;4978824;28;20218;-71
2022/01/11 01:12:10;;;;;;;50.00;19.77;;;;;;;;;;4954443;28;20229;-71
2022/01/11 01:14:39;;;;;;;76.73;22.00;;;;;;;;;;4969635;28;20217;-71
2022/01/11 01:17:09;;;;;;;53.00;20.70;;;;;;;;;;4974044;28;20232;-71
2022/01/11 01:19:37;;;;;;;63.67;20.03;;;;;;;;;;4954164;28;20297;-71
2022/01/11 01:22:03;;;;;;;52.70;20.43;;;;;;;;;;4970059;28;20233;-72
2022/01/11 01:24:35;;;;;;;69.70;21.90;;;;;;;;;;4949588;28;20221;-71
2022/01/11 01:27:06;;;;;;;44.47;19.70;;;;;;;;;;4959069;28;20233;-72
2022/01/11 01:29:32;;;;;;;53.70;21.43;;;;;;;;;;4964732;28;20222;-71
2022/01/11 01:31:58;;;;;;;47.97;20.07;;;;;;;;;;4954180;28;20250;-71
2022/01/11 01:34:24;;;;;;;49.03;20.00;;;;;;;;;;4978128;28;20308;-71
2022/01/11 01:36:52;;;;;;;45.83;18.97;;;;;;;;;;4990429;28;20910;-71
2022/01/11 01:39:18;;;;;;;49.03;19.53;;;;;;;;;;4983027;28;20241;-71
2022/01/11 01:41:46;;;;;;;48.07;19.37;;;;;;;;;;4970287;28;20285;-71
2022/01/11 01:44:12;;;;;;;51.00;19.30;;;;;;;;;;4976112;28;20254;-71
2022/01/11 01:46:45;;;;;;;47.90;20.47;;;;;;;;;;4974241;28;20218;-71
2022/01/11 01:49:18;;;;;;;45.67;20.40;;;;;;;;;;4957492;28;20598;-72
2022/01/11 01:51:51;;;;;;;106.77;25.03;;;;;;;;;;4954743;28;20259;-72
2022/01/11 01:54:16;;;;;;;55.93;20.63;;;;;;;;;;4942195;28;20230;-71
2022/01/11 01:56:43;;;;;;;55.13;21.40;;;;;;;;;;4941553;28;20597;-71
2022/01/11 01:59:11;;;;;;;54.20;20.60;;;;;;;;;;4970391;28;20249;-71
2022/01/11 02:01:44;;;;;;;77.03;23.40;;;;;;;;;;4954155;28;20711;-72
2022/01/11 02:04:10;;;;;;;54.47;21.60;;;;;;;;;;4957164;28;20222;-71
2022/01/11 02:06:36;;;;;;;52.47;21.10;;;;;;;;;;4991285;28;20287;-71
2022/01/11 02:09:02;;;;;;;58.20;21.60;;;;;;;;;;4957218;28;20231;-72
2022/01/11 02:11:28;;;;;;;57.97;22.03;;;;;;;;;;4953918;28;20610;-71
2022/01/11 02:13:56;;;;;;;55.80;21.17;;;;;;;;;;4954148;28;20237;-71
2022/01/11 02:16:22;;;;;;;52.07;20.63;;;;;;;;;;4972460;28;20228;-71
2022/01/11 02:18:51;;;;;;;50.07;20.87;;;;;;;;;;4958678;28;20221;-72
2022/01/11 02:21:18;;;;;;;49.47;21.13;;;;;;;;;;4956389;28;20233;-71
2022/01/11 02:23:44;;;;;;;51.23;21.43;;;;;;;;;;4971523;28;20221;-71
2022/01/11 02:26:10;;;;;;;43.40;19.87;;;;;;;;;;4985109;28;20347;-71
2022/01/11 02:28:39;;;;;;;47.43;20.83;;;;;;;;;;4975557;28;20213;-72
2022/01/11 02:31:08;;;;;;;49.60;20.27;;;;;;;;;;4978760;28;20655;-72
2022/01/11 02:33:43;;;;;;;59.40;21.73;;;;;;;;;;4957701;28;20636;-71
2022/01/11 02:36:33;;;;;;;58.50;21.50;;;;;;;;;;4977208;28;20241;-71
2022/01/11 02:39:21;;;;;;;65.13;23.17;;;;;;;;;;4974835;28;20825;-71
2022/01/11 02:41:52;;;;;;;46.77;19.97;;;;;;;;;;4961770;28;20242;-71
2022/01/11 02:44:25;;;;;;;43.23;20.07;;;;;;;;;;4942995;28;20230;-71
2022/01/11 02:46:50;;;;;;;54.87;21.53;;;;;;;;;;4975791;28;20244;-71
2022/01/11 02:49:20;;;;;;;56.47;22.37;;;;;;;;;;4992562;28;20222;-72
2022/01/11 02:51:53;;;;;;;49.10;19.87;;;;;;;;;;4960745;28;20602;-72
2022/01/11 02:54:24;;;;;;;50.67;20.53;;;;;;;;;;4973620;28;20241;-71
2022/01/11 02:56:59;;;;;;;56.13;20.47;;;;;;;;;;4976487;28;20232;-71
2022/01/11 02:59:24;;;;;;;51.30;20.07;;;;;;;;;;4976115;28;20721;-72
2022/01/11 03:01:52;;;;;;;50.47;19.73;;;;;;;;;;4976711;28;20669;-71
2022/01/11 03:04:18;;;;;;;42.67;18.30;;;;;;;;;;4957237;28;20222;-71
2022/01/11 03:06:43;;;;;;;50.30;19.97;;;;;;;;;;4970266;28;20228;-71
2022/01/11 03:09:12;;;;;;;38.10;18.07;;;;;;;;;;4938153;28;20230;-71
2022/01/11 03:11:40;;;;;;;57.77;20.43;;;;;;;;;;4979808;28;20648;-72
2022/01/11 03:14:08;;;;;;;58.33;20.43;;;;;;;;;;4976630;28;20795;-72
2022/01/11 03:16:41;;;;;;;88.47;22.37;;;;;;;;;;4964691;28;20229;-71
2022/01/11 03:19:06;;;;;;;61.97;20.50;;;;;;;;;;4975535;28;20218;-71
2022/01/11 03:21:32;;;;;;;54.73;20.10;;;;;;;;;;4941400;28;20503;-72
2022/01/11 03:23:59;;;;;;;50.97;18.40;;;;;;;;;;4960864;28;20676;-73
2022/01/11 03:26:27;;;;;;;47.23;18.30;;;;;;;;;;4965737;28;20217;-71
2022/01/11 03:28:53;;;;;;;46.63;17.50;;;;;;;;;;4976285;28;20594;-72
2022/01/11 03:31:22;;;;;;;50.23;18.47;;;;;;;;;;4936787;28;20246;-71
2022/01/11 03:33:55;;;;;;;47.97;18.53;;;;;;;;;;4973075;28;20230;-72
2022/01/11 03:36:25;;;;;;;47.87;17.67;;;;;;;;;;4949273;28;20217;-72
2022/01/11 03:38:51;;;;;;;47.53;17.73;;;;;;;;;;4976145;28;20222;-73
2022/01/11 03:41:17;;;;;;;50.57;17.80;;;;;;;;;;4984371;28;20285;-72
2022/01/11 03:43:47;;;;;;;52.33;18.23;;;;;;;;;;4956547;28;20233;-71
2022/01/11 03:46:17;;;;;;;60.73;19.03;;;;;;;;;;4962599;28;20356;-72
2022/01/11 03:48:46;;;;;;;53.97;18.50;;;;;;;;;;4960562;28;20227;-71
2022/01/11 03:51:15;;;;;;;58.40;19.70;;;;;;;;;;4971264;28;20218;-72
2022/01/11 03:54:03;;;;;;;60.53;19.93;;;;;;;;;;4957344;28;20234;-71
2022/01/11 03:56:33;;;;;;;60.30;18.47;;;;;;;;;;4948866;28;20291;-72
2022/01/11 03:59:12;;;;;;;49.70;17.70;;;;;;;;;;4977299;28;20233;-71
2022/01/11 04:01:40;;;;;;;55.73;19.00;;;;;;;;;;4968892;28;20708;-71
2022/01/11 04:04:06;;;;;;;58.17;18.33;;;;;;;;;;4939680;28;20633;-71
2022/01/11 04:06:34;;;;;;;47.73;19.00;;;;;;;;;;4945911;28;20229;-72
2022/01/11 04:09:04;;;;;;;47.20;17.40;;;;;;;;;;4959466;28;20229;-72
2022/01/11 04:11:32;;;;;;;53.10;19.13;;;;;;;;;;4970603;28;20230;-72
2022/01/11 04:14:00;;;;;;;54.73;18.23;;;;;;;;;;4951936;28;20282;-72
2022/01/11 04:16:27;;;;;;;50.00;18.30;;;;;;;;;;4949889;28;20214;-72
2022/01/11 04:18:54;;;;;;;59.30;17.83;;;;;;;;;;4944258;28;20714;-72
2022/01/11 04:21:23;;;;;;;48.70;18.00;;;;;;;;;;4955278;28;20226;-71
2022/01/11 04:24:02;;;;;;;39.73;17.57;;;;;;;;;;4952407;28;20218;-76
2022/01/11 04:26:28;;;;;;;38.47;16.47;;;;;;;;;;4955854;28;20607;-71
2022/01/11 04:28:58;;;;;;;41.80;17.07;;;;;;;;;;4979493;28;20693;-71
2022/01/11 04:31:26;;;;;;;57.60;26.97;;;;;;;;;;4970568;28;20352;-71
2022/01/11 04:33:55;;;;;;;43.13;16.83;;;;;;;;;;4971618;28;20783;-72
2022/01/11 04:36:23;;;;;;;44.60;17.50;;;;;;;;;;4939382;28;20226;-72
2022/01/11 04:38:56;;;;;;;42.90;15.80;;;;;;;;;;4953324;28;20219;-71
2022/01/11 04:41:22;;;;;;;45.53;16.73;;;;;;;;;;4920522;28;20752;-71
2022/01/11 04:43:50;;;;;;;47.33;18.23;;;;;;;;;;4974505;28;20300;-71
2022/01/11 04:46:18;;;;;;;43.90;16.90;;;;;;;;;;4974979;28;20225;-70
2022/01/11 04:48:48;;;;;;;42.60;17.40;;;;;;;;;;4954676;28;20210;-71
2022/01/11 04:51:16;;;;;;;39.23;17.13;;;;;;;;;;4972205;28;20245;-71
2022/01/11 04:53:42;;;;;;;45.23;17.70;;;;;;;;;;4940427;28;20235;-71
2022/01/11 04:56:12;;;;;;;42.60;15.93;;;;;;;;;;4956403;28;20790;-71
2022/01/11 04:58:38;;;;;;;37.53;15.50;;;;;;;;;;4956041;28;20337;-74
2022/01/11 05:01:03;;;;;;;40.93;17.60;;;;;;;;;;4971848;28;20295;-74
2022/01/11 05:03:29;;;;;;;40.33;16.93;;;;;;;;;;4950313;28;20222;-73
2022/01/11 05:06:00;;;;;;;38.90;15.67;;;;;;;;;;4973597;28;20308;-73
2022/01/11 05:08:28;;;;;;;43.20;14.77;;;;;;;;;;4960582;28;20293;-73
2022/01/11 05:10:58;;;;;;;39.47;16.80;;;;;;;;;;4936983;28;20786;-73
2022/01/11 05:13:24;;;;;;;36.50;15.50;;;;;;;;;;4971423;28;20229;-73
2022/01/11 05:15:50;;;;;;;34.70;14.90;;;;;;;;;;4971035;28;20221;-73
2022/01/11 05:18:18;;;;;;;35.70;14.93;;;;;;;;;;4948699;28;20313;-73
2022/01/11 05:20:47;;;;;;;31.57;13.83;;;;;;;;;;4955127;28;20226;-73
2022/01/11 05:23:14;;;;;;;37.80;14.73;;;;;;;;;;4962296;28;20225;-73
2022/01/11 05:25:45;;;;;;;32.10;14.07;;;;;;;;;;4958276;28;20221;-73
2022/01/11 05:28:12;;;;;;;28.37;13.70;;;;;;;;;;4966825;28;20241;-73
2022/01/11 05:30:45;;;;;;;39.30;13.83;;;;;;;;;;4955749;28;20655;-73
2022/01/11 05:33:13;;;;;;;33.40;14.10;;;;;;;;;;4961225;28;20225;-73
2022/01/11 05:35:43;;;;;;;32.37;12.93;;;;;;;;;;4979041;28;20221;-73
2022/01/11 05:38:14;;;;;;;39.00;14.70;;;;;;;;;;4958609;28;20221;-74
2022/01/11 05:40:42;;;;;;;32.50;13.73;;;;;;;;;;4960938;28;20224;-73
2022/01/11 05:43:12;;;;;;;33.33;13.77;;;;;;;;;;4953829;28;20281;-73
2022/01/11 05:45:38;;;;;;;36.67;15.07;;;;;;;;;;4955037;28;20214;-73
2022/01/11 05:48:04;;;;;;;36.83;13.93;;;;;;;;;;4973621;28;20267;-74
2022/01/11 05:50:34;;;;;;;35.03;14.47;;;;;;;;;;4973817;28;20232;-73
2022/01/11 05:53:03;;;;;;;32.90;14.73;;;;;;;;;;4974161;28;20758;-74
2022/01/11 05:55:29;;;;;;;39.50;15.27;;;;;;;;;;4969912;28;20260;-73
2022/01/11 05:58:02;;;;;;;34.63;14.93;;;;;;;;;;4941135;28;20257;-73
2022/01/11 06:00:30;;;;;;;38.53;17.07;;;;;;;;;;4969482;28;20226;-74
2022/01/11 06:02:58;;;;;;;40.83;16.37;;;;;;;;;;4954582;28;20226;-73
2022/01/11 06:05:36;;;;;;;44.00;16.67;;;;;;;;;;4959070;28;20245;-73
2022/01/11 06:08:03;;;;;;;45.17;17.83;;;;;;;;;;4943167;28;20261;-75
2022/01/11 06:10:31;;;;;;;50.60;19.37;;;;;;;;;;4943830;28;20244;-74
2022/01/11 06:12:58;;;;;;;44.63;19.30;;;;;;;;;;4958439;28;20227;-74
2022/01/11 06:15:29;;;;;;;52.67;19.50;;;;;;;;;;4961401;28;20292;-74
2022/01/11 06:17:58;;;;;;;51.23;19.90;;;;;;;;;;4942677;28;20223;-71
2022/01/11 06:20:29;;;;;;;45.23;20.20;;;;;;;;;;4946596;28;20586;-72
2022/01/11 06:22:59;;;;;;;45.03;19.40;;;;;;;;;;4958168;28;20222;-73
2022/01/11 06:25:25;;;;;;;45.53;18.97;;;;;;;;;;4975123;28;20221;-71
2022/01/11 06:27:57;;;;;;;41.40;19.57;;;;;;;;;;4956295;28;20781;-72
2022/01/11 06:30:26;;;;;;;46.23;19.50;;;;;;;;;;4941989;28;20219;-71
2022/01/11 06:32:54;;;;;;;51.47;20.93;;;;;;;;;;4968615;28;20233;-73
2022/01/11 06:35:20;;;;;;;42.27;19.70;;;;;;;;;;4976147;28;20264;-73
2022/01/11 06:37:50;;;;;;;40.60;19.83;;;;;;;;;;4957901;28;20684;-73
2022/01/11 06:40:21;;;;;;;41.73;20.60;;;;;;;;;;4955989;28;20236;-73
2022/01/11 06:42:52;;;;;;;42.03;19.30;;;;;;;;;;4938704;29;20697;-73
2022/01/11 06:45:25;;;;;;;42.77;19.33;;;;;;;;;;4957472;28;20214;-73
2022/01/11 06:47:56;;;;;;;45.33;19.90;;;;;;;;;;4942438;28;20225;-73
2022/01/11 06:50:23;;;;;;;39.43;18.53;;;;;;;;;;4955902;28;20710;-72
2022/01/11 06:52:54;;;;;;;41.53;18.73;;;;;;;;;;4960593;28;20217;-73
2022/01/11 06:55:27;;;;;;;37.97;19.03;;;;;;;;;;4963649;28;20245;-73
2022/01/11 06:57:55;;;;;;;33.97;17.93;;;;;;;;;;4958428;28;20619;-73
2022/01/11 07:00:23;;;;;;;39.73;19.10;;;;;;;;;;4970327;28;20244;-73
2022/01/11 07:02:57;;;;;;;38.27;18.57;;;;;;;;;;4961106;28;20233;-72
2022/01/11 07:05:43;;;;;;;37.37;19.27;;;;;;;;;;4975752;28;20280;-73
2022/01/11 07:08:12;;;;;;;36.87;18.70;;;;;;;;;;4994714;28;20222;-73
2022/01/11 07:10:41;;;;;;;36.13;18.73;;;;;;;;;;4960404;28;20215;-73
2022/01/11 07:13:07;;;;;;;34.23;19.10;;;;;;;;;;4952798;28;20222;-73
2022/01/11 07:15:37;;;;;;;35.20;18.40;;;;;;;;;;4964146;28;20227;-73
2022/01/11 07:18:09;;;;;;;35.73;18.53;;;;;;;;;;4976996;28;20308;-73
2022/01/11 07:20:37;;;;;;;38.23;19.10;;;;;;;;;;4981296;28;20731;-73
2022/01/11 07:23:05;;;;;;;38.03;19.17;;;;;;;;;;4972749;28;20292;-73
2022/01/11 07:25:32;;;;;;;38.73;18.87;;;;;;;;;;4970699;28;20217;-73
2022/01/11 07:28:00;;;;;;;36.83;18.73;;;;;;;;;;4977326;28;20213;-73
2022/01/11 07:30:29;;;;;;;36.57;18.83;;;;;;;;;;4967154;28;20218;-73
2022/01/11 07:32:55;;;;;;;34.23;18.23;;;;;;;;;;4957091;28;20711;-73
2022/01/11 07:35:28;;;;;;;30.37;18.10;;;;;;;;;;4962316;28;20309;-73
2022/01/11 07:37:55;;;;;;;35.60;18.93;;;;;;;;;;4957391;28;20618;-74
2022/01/11 07:40:20;;;;;;;36.30;19.27;;;;;;;;;;4937901;28;20210;-73
2022/01/11 07:42:51;;;;;;;33.93;18.67;;;;;;;;;;4957121;28;20214;-73
2022/01/11 07:45:42;;;;;;;34.63;17.97;;;;;;;;;;4968314;28;20300;-73
2022/01/11 07:48:10;;;;;;;34.87;17.17;;;;;;;;;;4941590;28;20716;-72
2022/01/11 07:50:44;;;;;;;28.80;17.13;;;;;;;;;;4967246;28;20221;-71
2022/01/11 07:53:10;;;;;;;32.77;17.30;;;;;;;;;;4991720;28;20226;-74
2022/01/11 07:55:42;;;;;;;33.43;17.70;;;;;;;;;;4977744;28;20308;-71
2022/01/11 07:58:19;;;;;;;34.00;17.43;;;;;;;;;;4976388;28;20222;-73
2022/01/11 08:00:46;;;;;;;33.60;18.17;;;;;;;;;;4968184;28;20218;-74
2022/01/11 08:03:19;;;;;;;34.27;18.67;;;;;;;;;;4956435;28;20245;-73
2022/01/11 08:05:55;;;;;;;32.07;17.43;;;;;;;;;;4967065;28;20762;-73
2022/01/11 08:08:27;;;;;;;34.03;18.97;;;;;;;;;;4976991;28;20594;-73
2022/01/11 08:10:58;;;;;;;29.33;16.53;;;;;;;;;;4965938;28;20223;-73
2022/01/11 08:13:24;;;;;;;37.17;17.47;;;;;;;;;;4935301;28;20227;-73
2022/01/11 08:15:52;;;;;;;28.23;16.23;;;;;;;;;;4965472;28;20360;-73
2022/01/11 08:18:18;;;;;;;30.17;16.63;;;;;;;;;;4975369;28;20221;-73
2022/01/11 08:20:48;;;;;;;31.43;17.50;;;;;;;;;;4969953;28;20266;-73
2022/01/11 08:23:20;;;;;;;28.63;16.47;;;;;;;;;;4954991;28;20223;-73
2022/01/11 08:25:48;;;;;;;32.27;17.40;;;;;;;;;;4976170;28;20695;-73
2022/01/11 08:28:17;;;;;;;30.40;17.63;;;;;;;;;;4942868;28;20778;-73
2022/01/11 08:30:57;;;;;;;30.43;16.10;;;;;;;;;;4967642;28;20217;-72
2022/01/11 08:33:34;;;;;;;29.97;16.73;;;;;;;;;;4950689;28;20225;-73
2022/01/11 08:36:03;;;;;;;28.23;16.10;;;;;;;;;;4959112;28;20213;-74
2022/01/11 08:38:34;;;;;;;27.33;15.43;;;;;;;;;;4955707;28;20230;-73
2022/01/11 08:40:59;;;;;;;27.77;15.77;;;;;;;;;;4958851;28;20218;-72
2022/01/11 08:43:26;;;;;;;24.40;15.80;;;;;;;;;;4939215;28;20222;-73
2022/01/11 08:45:52;;;;;;;24.43;15.47;;;;;;;;;;4942977;28;20229;-73
2022/01/11 08:48:22;;;;;;;29.63;16.17;;;;;;;;;;4951774;28;20254;-73
2022/01/11 08:50:55;;;;;;;28.83;16.80;;;;;;;;;;4942325;28;20361;-72
2022/01/11 08:53:30;;;;;;;28.30;15.90;;;;;;;;;;4948898;28;20218;-73
2022/01/11 08:56:05;;;;;;;25.70;14.67;;;;;;;;;;4971323;28;20222;-73
2022/01/11 08:58:33;;;;;;;26.80;15.13;;;;;;;;;;4971645;28;20250;-73
2022/01/11 09:01:00;;;;;;;30.97;15.70;;;;;;;;;;4957412;28;20241;-73
2022/01/11 09:03:29;;;;;;;28.43;16.10;;;;;;;;;;4954466;28;20253;-73
2022/01/11 09:05:55;;;;;;;27.23;16.37;;;;;;;;;;4921805;28;20309;-74
2022/01/11 09:08:23;;;;;;;36.93;22.97;;;;;;;;;;4962988;28;20733;-74
2022/01/11 09:10:50;;;;;;;24.87;15.23;;;;;;;;;;4953395;28;20226;-72
2022/01/11 09:13:18;;;;;;;23.73;16.43;;;;;;;;;;4954654;28;20237;-73
2022/01/11 09:15:47;;;;;;;25.10;15.27;;;;;;;;;;4955396;28;20230;-73
2022/01/11 09:18:15;;;;;;;24.27;15.03;;;;;;;;;;4972556;28;20230;-74
2022/01/11 09:20:43;;;;;;;24.47;15.27;;;;;;;;;;4960870;28;20269;-73
2022/01/11 09:23:11;;;;;;;22.33;14.70;;;;;;;;;;4941295;28;20241;-74
2022/01/11 09:25:40;;;;;;;26.80;15.53;;;;;;;;;;4959000;28;20232;-73
2022/01/11 09:28:10;;;;;;;25.47;15.00;;;;;;;;;;4977303;28;20828;-73
2022/01/11 09:30:39;;;;;;;23.50;14.30;;;;;;;;;;4955911;28;20285;-73
2022/01/11 09:33:10;;;;;;;26.60;14.53;;;;;;;;;;4973368;28;20226;-72
2022/01/11 09:35:37;;;;;;;26.17;15.70;;;;;;;;;;4955730;28;20354;-72
2022/01/11 09:38:22;;;;;;;25.90;15.23;;;;;;;;;;4969271;28;20233;-73
2022/01/11 09:40:56;;;;;;;28.03;14.90;;;;;;;;;;4955894;28;20301;-74
2022/01/11 09:43:25;;;;;;;24.73;14.97;;;;;;;;;;4955503;28;20218;-73
2022/01/11 09:45:59;;;;;;;25.60;16.23;;;;;;;;;;4940056;28;20228;-71
2022/01/11 09:48:34;;;;;;;24.93;15.47;;;;;;;;;;4953401;28;20297;-72
2022/01/11 09:51:00;;;;;;;27.27;15.87;;;;;;;;;;4940385;28;20235;-74
2022/01/11 09:53:28;;;;;;;28.93;16.17;;;;;;;;;;4936157;28;20240;-73
2022/01/11 09:55:56;;;;;;;31.03;17.63;;;;;;;;;;4947885;28;20234;-74
2022/01/11 09:58:26;;;;;;;23.00;15.10;;;;;;;;;;4946300;28;20336;-76
2022/01/11 10:00:52;;;;;;;22.53;14.23;;;;;;;;;;4968728;28;20771;-73
2022/01/11 10:03:59;;;;;;;25.47;14.67;;;;;;;;;;4945120;28;20285;-77
2022/01/11 10:06:35;;;;;;;26.03;14.67;;;;;;;;;;4953377;28;20233;-74
2022/01/11 10:09:20;;;;;;;27.30;16.47;;;;;;;;;;4954415;28;20232;-74
2022/01/11 10:11:53;;;;;;;27.37;16.60;;;;;;;;;;4971078;28;20249;-73
2022/01/11 10:14:31;;;;;;;23.70;15.37;;;;;;;;;;4970129;28;20266;-71
2022/01/11 10:17:16;;;;;;;28.00;16.73;;;;;;;;;;4955908;28;20232;-73
2022/01/11 10:19:49;;;;;;;22.37;14.30;;;;;;;;;;4955372;28;20221;-73
2022/01/11 10:22:19;;;;;;;28.97;16.37;;;;;;;;;;4946912;28;20233;-75
2022/01/11 10:24:50;;;;;;;23.97;15.90;;;;;;;;;;4967765;28;20218;-74
2022/01/11 10:27:26;;;;;;;28.27;16.07;;;;;;;;;;4938706;28;20221;-74
2022/01/11 10:30:08;;;;;;;27.63;15.53;;;;;;;;;;4954741;28;20695;-73
2022/01/11 10:32:51;;;;;;;23.23;15.17;;;;;;;;;;4954461;28;20241;-73
2022/01/11 10:35:32;;;;;;;24.00;15.00;;;;;;;;;;4954706;28;20261;-74
2022/01/11 10:38:06;;;;;;;28.13;15.10;;;;;;;;;;4974754;28;20390;-73
2022/01/11 10:40:47;;;;;;;24.07;15.83;;;;;;;;;;4971004;28;20215;-74
2022/01/11 10:43:19;;;;;;;23.53;14.40;;;;;;;;;;4958720;28;20221;-74
2022/01/11 10:45:58;;;;;;;24.53;14.20;;;;;;;;;;4960959;28;20234;-74
2022/01/11 10:48:27;;;;;;;21.00;13.73;;;;;;;;;;4952193;28;20273;-74
2022/01/11 10:50:59;;;;;;;22.73;13.60;;;;;;;;;;4942247;28;20437;-73
2022/01/11 10:53:32;;;;;;;22.87;13.33;;;;;;;;;;4950853;28;20294;-74
2022/01/11 10:55:59;;;;;;;19.87;12.80;;;;;;;;;;4974489;28;20226;-74
2022/01/11 10:58:35;;;;;;;21.60;13.47;;;;;;;;;;4940155;28;20629;-74
2022/01/11 11:01:01;;;;;;;20.07;12.80;;;;;;;;;;4954435;28;20580;-74
2022/01/11 11:03:32;;;;;;;22.10;13.47;;;;;;;;;;4940440;28;20708;-73
2022/01/11 11:06:11;;;;;;;21.47;13.43;;;;;;;;;;4939466;28;20228;-74
2022/01/11 11:08:48;;;;;;;21.70;13.40;;;;;;;;;;4968142;28;20223;-74
2022/01/11 11:11:30;;;;;;;21.57;14.10;;;;;;;;;;4964066;28;20236;-73
2022/01/11 11:14:53;;;;;;;24.80;12.87;;;;;;;;;;4974474;28;20222;-73
2022/01/11 11:17:29;;;;;;;23.50;13.83;;;;;;;;;;4961030;28;20275;-73
2022/01/11 11:20:12;;;;;;;22.63;13.50;;;;;;;;;;4946352;28;20228;-74
2022/01/11 11:22:41;;;;;;;22.33;13.23;;;;;;;;;;4973640;28;20226;-74
2022/01/11 11:25:09;;;;;;;16.63;12.37;;;;;;;;;;4974285;28;20225;-74
2022/01/11 11:27:36;;;;;;;20.17;13.50;;;;;;;;;;4977499;28;20596;-74
2022/01/11 11:30:03;;;;;;;24.87;13.83;;;;;;;;;;4977780;28;20241;-74
2022/01/11 11:32:30;;;;;;;23.30;13.73;;;;;;;;;;4973259;28;20265;-74
2022/01/11 11:34:58;;;;;;;20.63;14.50;;;;;;;;;;4987319;28;20245;-74
2022/01/11 11:37:31;;;;;;;22.50;13.80;;;;;;;;;;4976524;28;20305;-74
2022/01/11 11:39:59;;;;;;;22.70;14.87;;;;;;;;;;4977270;28;20281;-74
2022/01/11 11:42:24;;;;;;;23.43;14.30;;;;;;;;;;4940065;28;20250;-73
2022/01/11 11:44:50;;;;;;;19.60;13.07;;;;;;;;;;4967806;28;20252;-74
2022/01/11 11:47:30;;;;;;;21.40;13.57;;;;;;;;;;4960907;28;20602;-73
2022/01/11 11:49:56;;;;;;;23.80;12.33;;;;;;;;;;4965294;28;20222;-74
2022/01/11 11:52:23;;;;;;;18.97;12.03;;;;;;;;;;4956635;28;20229;-74
2022/01/11 11:54:58;;;;;;;17.17;11.60;;;;;;;;;;4966435;28;20232;-73
2022/01/11 11:57:34;;;;;;;18.20;11.13;;;;;;;;;;4977013;28;20217;-74
2022/01/11 12:00:16;;;;;;;20.73;11.47;;;;;;;;;;4950302;28;20232;-72
2022/01/11 12:03:11;;;;;;;20.53;11.60;;;;;;;;;;4941506;28;20218;-74
2022/01/11 12:05:40;;;;;;;18.00;11.53;;;;;;;;;;4957230;28;20245;-75
2022/01/11 12:08:41;;;;;;;21.63;12.97;;;;;;;;;;4971810;28;20218;-73
2022/01/11 12:11:16;;;;;;;20.70;13.43;;;;;;;;;;4956666;28;20230;-73
2022/01/11 12:13:54;;;;;;;24.60;14.33;;;;;;;;;;4941552;28;20253;-74
2022/01/11 12:16:25;;;;;;;23.87;13.90;;;;;;;;;;4956371;28;20233;-74
2022/01/11 12:18:51;;;;;;;28.10;15.20;;;;;;;;;;4969566;28;20282;-74
2022/01/11 12:21:21;;;;;;;24.60;15.00;;;;;;;;;;4989891;28;20356;-73
2022/01/11 12:23:51;;;;;;;25.87;14.23;;;;;;;;;;4991844;28;20222;-74
2022/01/11 12:26:26;;;;;;;25.43;14.27;;;;;;;;;;4954628;28;20282;-75
2022/01/11 12:29:08;;;;;;;23.03;14.33;;;;;;;;;;4937434;28;20222;-76
2022/01/11 12:31:44;;;;;;;22.23;13.83;;;;;;;;;;4968135;28;20238;-74
2022/01/11 12:34:14;;;;;;;23.93;14.53;;;;;;;;;;4967748;28;20234;-75
2022/01/11 12:36:56;;;;;;;23.07;14.37;;;;;;;;;;4975326;28;20607;-75
2022/01/11 12:39:28;;;;;;;23.30;13.97;;;;;;;;;;4991298;28;20218;-74
2022/01/11 12:41:56;;;;;;;25.90;14.63;;;;;;;;;;4979405;28;20227;-73
2022/01/11 12:44:33;;;;;;;20.20;14.83;;;;;;;;;;4963868;28;20222;-74
2022/01/11 12:47:09;;;;;;;24.40;14.53;;;;;;;;;;4955868;28;20387;-73
2022/01/11 12:49:36;;;;;;;21.27;14.40;;;;;;;;;;4954497;28;20222;-72
2022/01/11 12:52:14;;;;;;;21.83;13.47;;;;;;;;;;4956560;28;20316;-74
2022/01/11 12:54:52;;;;;;;21.10;13.83;;;;;;;;;;4968168;28;20230;-76
2022/01/11 12:57:30;;;;;;;24.47;13.27;;;;;;;;;;4938546;28;20477;-72
2022/01/11 13:00:12;;;;;;;26.47;14.30;;;;;;;;;;4951248;28;20617;-74
2022/01/11 13:02:38;;;;;;;24.67;14.13;;;;;;;;;;4972026;28;20230;-74
2022/01/11 13:05:08;;;;;;;23.17;13.27;;;;;;;;;;4971091;28;20232;-73
2022/01/11 13:07:35;;;;;;;23.23;14.53;;;;;;;;;;4952457;28;20230;-73
2022/01/11 13:10:07;;;;;;;22.33;13.27;;;;;;;;;;4952992;28;20309;-73
2022/01/11 13:12:36;;;;;;;26.03;14.73;;;;;;;;;;4972757;28;20229;-73
2022/01/11 13:15:13;;;;;;;25.87;14.67;;;;;;;;;;4956070;28;20234;-73
2022/01/11 13:18:09;;;;;;;24.67;14.43;;;;;;;;;;4957146;28;20287;-74
2022/01/11 13:20:38;;;;;;;26.17;13.57;;;;;;;;;;4973608;28;20213;-72
2022/01/11 13:23:22;;;;;;;24.03;14.43;;;;;;;;;;4953610;28;20229;-75
2022/01/11 13:26:22;;;;;;;25.27;13.33;;;;;;;;;;4968741;28;20222;-74
2022/01/11 13:28:53;;;;;;;22.97;13.43;;;;;;;;;;4965957;28;20301;-74
2022/01/11 13:31:25;;;;;;;23.40;13.93;;;;;;;;;;4970801;28;20234;-75
2022/01/11 13:33:58;;;;;;;22.30;13.67;;;;;;;;;;4971603;28;20236;-74
2022/01/11 13:36:30;;;;;;;25.40;14.80;;;;;;;;;;4957302;28;20723;-71
2022/01/11 13:39:02;;;;;;;23.03;14.03;;;;;;;;;;4955453;28;20241;-74
2022/01/11 13:41:34;;;;;;;27.57;15.07;;;;;;;;;;4968990;28;20240;-73
2022/01/11 13:44:10;;;;;;;25.27;15.23;;;;;;;;;;4955459;28;20214;-73
2022/01/11 13:46:39;;;;;;;28.30;15.93;;;;;;;;;;4978794;28;20218;-72
2022/01/11 13:49:21;;;;;;;26.50;15.87;;;;;;;;;;4970491;28;20715;-73
2022/01/11 13:51:51;;;;;;;28.43;16.27;;;;;;;;;;4966162;28;20229;-75
2022/01/11 13:54:20;;;;;;;27.80;15.37;;;;;;;;;;4942224;28;20748;-74
2022/01/11 13:56:50;;;;;;;32.90;17.73;;;;;;;;;;4981850;28;20232;-74
2022/01/11 13:59:26;;;;;;;30.40;16.97;;;;;;;;;;4958636;28;20881;-75
2022/01/11 14:02:13;;;;;;;25.50;15.90;;;;;;;;;;4964953;28;20221;-72
2022/01/11 14:04:45;;;;;;;28.40;16.47;;;;;;;;;;4969700;28;20728;-72
2022/01/11 14:07:20;;;;;;;27.70;16.43;;;;;;;;;;4980422;28;20315;-72
2022/01/11 14:09:50;;;;;;;31.23;17.97;;;;;;;;;;4992444;28;20250;-72
2022/01/11 14:12:24;;;;;;;31.73;16.10;;;;;;;;;;4963516;28;20287;-72
2022/01/11 14:15:02;;;;;;;29.13;16.27;;;;;;;;;;4954055;28;20248;-73
2022/01/11 14:17:31;;;;;;;28.23;16.20;;;;;;;;;;4977618;28;20259;-72
2022/01/11 14:20:00;;;;;;;35.13;16.90;;;;;;;;;;4999649;28;20221;-72
2022/01/11 14:22:37;;;;;;;29.90;16.40;;;;;;;;;;4928100;28;20282;-72
2022/01/11 14:25:08;;;;;;;29.93;16.07;;;;;;;;;;4949094;28;20256;-72
2022/01/11 14:27:36;;;;;;;28.10;16.40;;;;;;;;;;4959429;28;20237;-72
2022/01/11 14:30:15;;;;;;;31.50;16.97;;;;;;;;;;4939419;29;20305;-72
2022/01/11 14:32:54;;;;;;;25.50;16.17;;;;;;;;;;4978365;28;20578;-72
2022/01/11 14:35:23;;;;;;;28.63;16.47;;;;;;;;;;4993351;28;20255;-73
2022/01/11 14:38:06;;;;;;;33.23;17.03;;;;;;;;;;4965752;28;20301;-73
2022/01/11 14:40:33;;;;;;;32.23;16.47;;;;;;;;;;4974066;28;20707;-73